createdAt,value
2022-08-30T00:02:12.597Z,100291.75
2022-08-30T00:04:53.493Z,100288.50
2022-08-30T00:07:33.184Z,100295.78
2022-08-30T00:10:10.717Z,100298.06
2022-08-30T00:12:48.408Z,100290.34
2022-08-30T00:15:36.756Z,100294.41
2022-08-30T00:18:20.996Z,100298.91
2022-08-30T00:21:05.894Z,100296.97
2022-08-30T00:23:43.714Z,100299.75
2022-08-30T00:26:37.143Z,100294.72
2022-08-30T00:29:15.215Z,100298.28
2022-08-30T00:31:57.713Z,100289.09
2022-08-30T00:34:42.380Z,100304.19
2022-08-30T00:37:20.547Z,100303.38
2022-08-30T00:40:02.210Z,100298.63
2022-08-30T00:42:41.403Z,100297.56
2022-08-30T00:45:17.494Z,100303.59
2022-08-30T00:48:14.798Z,100296.91
2022-08-30T00:50:57.908Z,100297.87
2022-08-30T00:53:40.107Z,100298.22
2022-08-30T00:56:16.492Z,100301.94
2022-08-30T00:58:58.906Z,100298.53
2022-08-30T01:01:42.748Z,100301.94
2022-08-30T01:04:20.780Z,100297.66
2022-08-30T01:06:59.896Z,100297.53
2022-08-30T01:09:42.996Z,100293.06
2022-08-30T01:12:18.719Z,100285.84
2022-08-30T01:14:59.021Z,100296.09
2022-08-30T01:17:38.713Z,100286.12
2022-08-30T01:20:24.806Z,100293.78
2022-08-30T01:23:01.646Z,100295.38
2022-08-30T01:25:35.932Z,100290.22
2022-08-30T01:28:14.624Z,100298.94
2022-08-30T01:30:52.947Z,100292.16
2022-08-30T01:33:26.021Z,100289.00
2022-08-30T01:36:16.332Z,100286.06
2022-08-30T01:38:55.108Z,100281.31
2022-08-30T01:41:39.626Z,100291.25
2022-08-30T01:44:16.097Z,100291.69
2022-08-30T01:47:05.013Z,100286.03
2022-08-30T01:49:35.765Z,100286.41
2022-08-30T01:52:11.039Z,100285.56
2022-08-30T01:54:55.992Z,100276.00
2022-08-30T01:57:33.677Z,100284.22
2022-08-30T02:00:04.977Z,100279.22
2022-08-30T02:02:47.623Z,100275.13
2022-08-30T02:05:26.922Z,100277.31
2022-08-30T02:08:02.868Z,100274.37
2022-08-30T02:10:56.558Z,100273.03
2022-08-30T02:13:30.771Z,100272.88
2022-08-30T02:16:05.321Z,100272.03
2022-08-30T02:18:43.234Z,100273.00
2022-08-30T02:21:22.475Z,100266.34
2022-08-30T02:23:55.689Z,100271.66
2022-08-30T02:26:28.369Z,100274.84
2022-08-30T02:29:00.301Z,100268.31
2022-08-30T02:31:36.252Z,100273.94
2022-08-30T02:34:07.874Z,100279.66
2022-08-30T02:36:45.440Z,100278.84
2022-08-30T02:39:19.852Z,100284.66
2022-08-30T02:42:00.559Z,100275.19
2022-08-30T02:44:36.597Z,100277.72
2022-08-30T02:47:13.153Z,100277.94
2022-08-30T02:49:42.787Z,100281.66
2022-08-30T02:52:27.773Z,100280.03
2022-08-30T02:55:00.904Z,100281.50
2022-08-30T02:57:43.176Z,100284.66
2022-08-30T03:00:18.809Z,100279.69
2022-08-30T03:02:56.977Z,100281.09
2022-08-30T03:05:33.701Z,100273.50
2022-08-30T03:08:14.257Z,100273.12
2022-08-30T03:10:46.915Z,100274.09
2022-08-30T03:13:25.575Z,100274.84
2022-08-30T03:15:54.687Z,100280.31
2022-08-30T03:18:37.907Z,100276.94
2022-08-30T03:21:18.248Z,100283.78
2022-08-30T03:23:50.877Z,100288.94
2022-08-30T03:26:28.139Z,100294.03
2022-08-30T03:28:58.206Z,100291.97
2022-08-30T03:31:31.489Z,100302.00
2022-08-30T03:34:14.784Z,100299.47
2022-08-30T03:36:54.512Z,100309.06
2022-08-30T03:39:24.959Z,100313.06
2022-08-30T03:41:58.191Z,100304.56
2022-08-30T03:44:33.653Z,100307.31
2022-08-30T03:47:07.626Z,100309.75
2022-08-30T03:49:47.642Z,100316.06
2022-08-30T03:52:20.056Z,100317.16
2022-08-30T03:54:55.464Z,100318.59
2022-08-30T03:57:34.968Z,100317.44
2022-08-30T04:00:14.002Z,100320.09
2022-08-30T04:02:47.196Z,100318.22
2022-08-30T04:05:28.724Z,100320.59
2022-08-30T04:08:07.203Z,100320.66
2022-08-30T04:10:44.516Z,100323.19
2022-08-30T04:13:23.316Z,100317.12
2022-08-30T04:15:54.773Z,100326.84
2022-08-30T04:18:28.073Z,100332.75
2022-08-30T04:21:00.305Z,100342.75
2022-08-30T04:23:38.563Z,100339.41
2022-08-30T04:26:06.801Z,100347.97
2022-08-30T04:28:38.057Z,100354.50
2022-08-30T04:31:17.083Z,100355.72
2022-08-30T04:33:54.837Z,100363.44
2022-08-30T04:36:26.142Z,100368.97
2022-08-30T04:38:57.605Z,100369.63
2022-08-30T04:41:28.916Z,100379.03
2022-08-30T04:44:03.656Z,100382.72
2022-08-30T04:46:44.467Z,100382.19
2022-08-30T04:49:24.083Z,100382.97
2022-08-30T04:51:55.690Z,100378.19
2022-08-30T04:54:28.440Z,100378.22
2022-08-30T04:56:56.977Z,100391.62
2022-08-30T04:59:28.647Z,100383.50
2022-08-30T05:02:00.822Z,100385.44
2022-08-30T05:04:35.703Z,100388.81
2022-08-30T05:07:06.780Z,100389.81
2022-08-30T05:09:40.772Z,100393.81
2022-08-30T05:12:11.919Z,100393.59
2022-08-30T05:14:42.703Z,100397.59
2022-08-30T05:17:17.248Z,100398.31
2022-08-30T05:19:49.543Z,100397.69
2022-08-30T05:22:23.110Z,100397.78
2022-08-30T05:24:56.385Z,100396.97
2022-08-30T05:27:23.961Z,100400.44
2022-08-30T05:29:52.494Z,100397.97
2022-08-30T05:32:21.499Z,100394.31
2022-08-30T05:34:51.913Z,100400.91
2022-08-30T05:37:20.363Z,100401.06
2022-08-30T05:39:51.507Z,100398.28
2022-08-30T05:42:21.698Z,100392.75
2022-08-30T05:44:53.884Z,100395.12
2022-08-30T05:47:22.733Z,100394.81
2022-08-30T05:49:50.848Z,100399.50
2022-08-30T05:52:19.089Z,100401.22
2022-08-30T05:54:54.662Z,100392.97
2022-08-30T05:57:23.086Z,100403.28
2022-08-30T05:59:51.796Z,100402.41
2022-08-30T06:02:19.802Z,100404.13
2022-08-30T06:04:48.641Z,100398.28
2022-08-30T06:07:18.926Z,100398.19
2022-08-30T06:09:49.661Z,100398.91
2022-08-30T06:12:17.753Z,100403.66
2022-08-30T06:14:45.650Z,100400.97
2022-08-30T06:17:14.753Z,100404.62
2022-08-30T06:19:42.916Z,100407.31
2022-08-30T06:22:11.463Z,100410.37
2022-08-30T06:25:01.150Z,100413.78
2022-08-30T06:27:31.431Z,100402.56
2022-08-30T06:30:15.068Z,100407.19
2022-08-30T06:32:53.956Z,100407.72
2022-08-30T06:35:30.677Z,100409.53
2022-08-30T06:38:00.566Z,100408.66
2022-08-30T06:40:29.079Z,100408.00
2022-08-30T06:42:59.652Z,100409.31
2022-08-30T06:45:27.820Z,100402.03
2022-08-30T06:50:27.182Z,100410.16
2022-08-30T06:53:07.931Z,100406.03
2022-08-30T06:55:37.610Z,100410.03
2022-08-30T06:58:06.069Z,100412.38
2022-08-30T07:00:34.107Z,100409.41
2022-08-30T07:03:02.759Z,100415.78
2022-08-30T07:05:31.018Z,100422.72
2022-08-30T07:07:59.077Z,100423.84
2022-08-30T07:10:27.108Z,100425.84
2022-08-30T07:13:04.736Z,100423.63
2022-08-30T07:15:34.003Z,100420.37
2022-08-30T07:18:30.209Z,100430.37
2022-08-30T07:21:17.276Z,100436.69
2022-08-30T07:23:53.070Z,100424.03
2022-08-30T07:26:26.388Z,100424.16
2022-08-30T07:28:55.740Z,100430.75
2022-08-30T07:31:24.858Z,100437.97
2022-08-30T07:33:53.495Z,100432.47
2022-08-30T07:36:22.578Z,100434.25
2022-08-30T07:38:51.541Z,100434.56
2022-08-30T07:41:30.799Z,100443.59
2022-08-30T07:43:59.195Z,100435.72
2022-08-30T07:46:28.355Z,100430.91
2022-08-30T07:48:56.704Z,100432.56
2022-08-30T07:51:26.936Z,100434.38
2022-08-30T07:53:56.526Z,100424.38
2022-08-30T07:56:25.610Z,100433.16
2022-08-30T07:58:53.961Z,100430.00
2022-08-30T08:01:22.957Z,100428.72
2022-08-30T08:03:51.826Z,100422.59
2022-08-30T08:06:21.754Z,100431.09
2022-08-30T08:08:50.619Z,100428.19
2022-08-30T08:11:23.043Z,100418.06
2022-08-30T08:13:54.380Z,100431.38
2022-08-30T08:16:25.451Z,100431.53
2022-08-30T08:18:54.664Z,100427.00
2022-08-30T08:21:23.691Z,100431.75
2022-08-30T08:23:52.054Z,100439.00
2022-08-30T08:26:20.470Z,100428.91
2022-08-30T08:28:49.034Z,100430.31
2022-08-30T08:31:24.031Z,100435.62
2022-08-30T08:36:33.562Z,100435.03
2022-08-30T08:39:03.669Z,100431.72
2022-08-30T08:42:04.150Z,100439.69
2022-08-30T08:44:55.551Z,100439.31
2022-08-30T08:47:26.165Z,100432.22
2022-08-30T08:49:58.504Z,100424.41
2022-08-30T08:52:53.074Z,100432.16
2022-08-30T08:55:22.899Z,100432.25
2022-08-30T08:57:52.552Z,100431.94
2022-08-30T09:00:21.283Z,100430.25
2022-08-30T09:03:04.511Z,100434.84
2022-08-30T09:05:36.011Z,100428.69
2022-08-30T09:08:10.451Z,100422.38
2022-08-30T09:10:50.844Z,100427.84
2022-08-30T09:13:31.129Z,100423.28
2022-08-30T09:16:00.474Z,100417.34
2022-08-30T09:18:50.110Z,100427.50
2022-08-30T09:21:25.311Z,100411.59
2022-08-30T09:24:02.135Z,100410.78
2022-08-30T09:26:37.730Z,100416.87
2022-08-30T09:29:06.105Z,100410.66
2022-08-30T09:31:49.569Z,100404.75
2022-08-30T09:34:20.823Z,100407.38
2022-08-30T09:36:52.833Z,100398.00
2022-08-30T09:39:30.474Z,100400.44
2022-08-30T09:42:22.899Z,100403.53
2022-08-30T09:44:51.814Z,100399.34
2022-08-30T09:47:26.126Z,100398.47
2022-08-30T09:50:08.028Z,100394.06
2022-08-30T09:52:55.329Z,100397.16
2022-08-30T09:56:00.335Z,100390.13
2022-08-30T09:58:42.481Z,100392.09
2022-08-30T10:01:37.569Z,100384.41
2022-08-30T10:04:20.728Z,100372.13
2022-08-30T10:06:55.014Z,100377.91
2022-08-30T10:09:38.640Z,100375.41
2022-08-30T10:12:17.012Z,100378.34
2022-08-30T10:15:05.002Z,100377.28
2022-08-30T10:17:47.848Z,100384.38
2022-08-30T10:20:27.224Z,100370.91
2022-08-30T10:23:02.416Z,100378.44
2022-08-30T10:25:38.675Z,100376.25
2022-08-30T10:28:37.944Z,100370.91
2022-08-30T10:31:13.243Z,100369.19
2022-08-30T10:34:02.338Z,100360.06
2022-08-30T10:36:41.967Z,100358.94
2022-08-30T10:39:15.182Z,100358.28
2022-08-30T10:41:49.460Z,100360.06
2022-08-30T10:44:34.849Z,100353.06
2022-08-30T10:47:27.911Z,100358.06
2022-08-30T10:50:07.607Z,100349.56
2022-08-30T10:52:48.152Z,100343.69
2022-08-30T10:55:16.528Z,100341.75
2022-08-30T10:57:46.028Z,100343.69
2022-08-30T11:03:44.720Z,100329.59
2022-08-30T11:07:09.822Z,100335.44
2022-08-30T11:10:18.510Z,100327.34
2022-08-30T11:12:59.480Z,100324.31
2022-08-30T11:15:34.935Z,100327.66
2022-08-30T11:18:06.862Z,100325.19
2022-08-30T11:20:47.805Z,100332.53
2022-08-30T11:23:24.897Z,100317.50
2022-08-30T11:26:02.409Z,100317.41
2022-08-30T11:28:37.024Z,100308.81
2022-08-30T11:31:11.418Z,100308.31
2022-08-30T11:33:57.794Z,100302.59
2022-08-30T11:36:38.195Z,100307.28
2022-08-30T11:39:49.092Z,100304.47
2022-08-30T11:42:24.403Z,100307.22
2022-08-30T11:45:26.912Z,100300.56
2022-08-30T11:48:04.493Z,100289.31
2022-08-30T11:50:39.923Z,100287.22
2022-08-30T11:53:18.257Z,100292.09
2022-08-30T11:56:14.238Z,100279.44
2022-08-30T11:58:45.946Z,100279.56
2022-08-30T12:01:54.041Z,100280.63
2022-08-30T12:04:46.162Z,100274.03
2022-08-30T12:14:09.001Z,100264.88
2022-08-30T12:17:14.815Z,100261.78
2022-08-30T12:19:49.073Z,100263.38
2022-08-30T12:22:19.203Z,100260.41
2022-08-30T12:25:01.160Z,100252.56
2022-08-30T12:27:33.041Z,100236.28
2022-08-30T12:30:23.539Z,100237.56
2022-08-30T12:33:42.775Z,100238.28
2022-08-30T12:37:05.533Z,100230.97
2022-08-30T12:39:53.550Z,100223.44
2022-08-30T12:42:28.802Z,100227.03
2022-08-30T12:45:12.134Z,100231.19
2022-08-30T12:48:00.528Z,100215.69
2022-08-30T12:50:40.716Z,100211.78
2022-08-30T12:53:21.724Z,100214.09
2022-08-30T12:56:11.372Z,100212.53
2022-08-30T12:59:22.767Z,100205.88
2022-08-30T13:02:42.332Z,100202.16
2022-08-30T13:05:47.840Z,100198.56
2022-08-30T13:08:39.260Z,100202.47
2022-08-30T13:11:13.213Z,100198.72
2022-08-30T13:29:54.618Z,100174.84
2022-08-30T13:32:25.781Z,100174.84
2022-08-30T13:34:54.717Z,100165.87
2022-08-30T13:40:15.369Z,100159.72
2022-08-30T13:42:45.675Z,100159.59
2022-08-30T13:48:11.488Z,100158.13
2022-08-30T13:50:41.084Z,100157.41
2022-08-30T13:53:10.682Z,100150.81
2022-08-30T13:55:48.614Z,100152.22
2022-08-30T13:58:36.785Z,100148.22
2022-08-30T14:01:29.958Z,100151.94
2022-08-30T14:04:17.084Z,100143.38
2022-08-30T14:09:41.530Z,100135.22
2022-08-30T14:15:30.673Z,100128.91
2022-08-30T14:18:03.521Z,100125.66
2022-08-30T14:20:40.161Z,100124.13
2022-08-30T14:23:18.283Z,100127.31
2022-08-30T14:25:51.415Z,100123.22
2022-08-30T14:28:19.797Z,100127.16
2022-08-30T14:30:52.519Z,100119.56
2022-08-30T14:33:24.355Z,100120.56
2022-08-30T14:35:53.508Z,100122.37
2022-08-30T14:38:32.788Z,100112.16
2022-08-30T14:41:07.479Z,100115.56
2022-08-30T14:43:41.468Z,100113.56
2022-08-30T14:46:15.388Z,100113.41
2022-08-30T14:48:57.282Z,100108.41
2022-08-30T14:51:29.478Z,100110.97
2022-08-30T14:54:05.774Z,100114.47
2022-08-30T14:56:42.276Z,100114.53
2022-08-30T14:59:21.390Z,100104.69
2022-08-30T15:02:03.008Z,100099.69
2022-08-30T15:04:34.824Z,100108.03
2022-08-30T15:07:16.683Z,100106.91
2022-08-30T15:09:50.751Z,100108.03
2022-08-30T15:12:26.176Z,100107.09
2022-08-30T15:15:10.941Z,100104.16
2022-08-30T15:17:39.526Z,100113.38
2022-08-30T15:20:16.244Z,100107.59
2022-08-30T15:22:46.184Z,100101.94
2022-08-30T15:25:17.149Z,100112.66
2022-08-30T15:27:50.093Z,100102.00
2022-08-30T15:30:26.030Z,100102.91
2022-08-30T15:32:57.581Z,100101.19
2022-08-30T15:35:31.307Z,100101.03
2022-08-30T15:37:59.498Z,100101.81
2022-08-30T15:40:33.418Z,100101.78
2022-08-30T15:43:05.783Z,100102.06
2022-08-30T15:45:36.005Z,100100.09
2022-08-30T15:48:04.187Z,100101.09
2022-08-30T15:50:35.950Z,100098.84
2022-08-30T15:53:07.435Z,100107.63
2022-08-30T15:55:37.910Z,100107.38
2022-08-30T15:58:09.235Z,100108.69
2022-08-30T16:00:42.790Z,100103.28
2022-08-30T16:03:12.997Z,100109.66
2022-08-30T16:05:46.769Z,100101.28
2022-08-30T16:08:14.930Z,100093.63
2022-08-30T16:10:47.941Z,100102.69
2022-08-30T16:13:21.226Z,100097.72
2022-08-30T16:15:49.024Z,100097.78
2022-08-30T16:18:17.678Z,100100.22
2022-08-30T16:20:46.162Z,100098.44
2022-08-30T16:23:13.964Z,100093.88
2022-08-30T16:25:41.739Z,100096.03
2022-08-30T16:28:10.815Z,100095.38
2022-08-30T16:30:38.636Z,100091.22
2022-08-30T16:33:07.763Z,100090.00
2022-08-30T16:35:36.553Z,100085.69
2022-08-30T16:38:04.829Z,100085.25
2022-08-30T16:40:33.279Z,100090.44
2022-08-30T16:43:04.244Z,100092.41
2022-08-30T16:45:37.009Z,100084.91
2022-08-30T16:48:05.776Z,100094.84
2022-08-30T16:50:37.760Z,100088.37
2022-08-30T16:53:07.988Z,100093.16
2022-08-30T16:55:37.868Z,100093.59
2022-08-30T16:58:09.111Z,100092.03
2022-08-30T17:00:39.339Z,100100.44
2022-08-30T17:03:09.499Z,100096.56
2022-08-30T17:05:38.120Z,100107.97
2022-08-30T17:08:05.829Z,100097.78
2022-08-30T17:10:34.389Z,100100.38
2022-08-30T17:13:03.987Z,100103.41
2022-08-30T17:15:33.668Z,100107.19
2022-08-30T17:18:01.871Z,100104.38
2022-08-30T17:20:31.971Z,100113.38
2022-08-30T17:23:02.259Z,100108.88
2022-08-30T17:25:33.912Z,100109.44
2022-08-30T17:28:03.146Z,100107.28
2022-08-30T17:30:31.894Z,100109.72
2022-08-30T17:33:00.080Z,100117.75
2022-08-30T17:35:30.816Z,100122.09
2022-08-30T17:37:58.748Z,100119.69
2022-08-30T17:40:27.068Z,100126.03
2022-08-30T17:42:56.161Z,100133.84
2022-08-30T17:45:24.235Z,100129.13
2022-08-30T17:47:52.772Z,100136.63
2022-08-30T17:50:21.532Z,100146.41
2022-08-30T17:52:51.180Z,100151.94
2022-08-30T17:55:19.583Z,100149.41
2022-08-30T17:57:48.217Z,100143.53
2022-08-30T18:00:20.179Z,100148.78
2022-08-30T18:02:49.766Z,100159.03
2022-08-30T18:05:17.361Z,100169.28
2022-08-30T18:07:53.588Z,100169.28
2022-08-30T18:10:28.544Z,100165.53
2022-08-30T18:13:03.903Z,100167.06
2022-08-30T18:15:33.248Z,100175.34
2022-08-30T18:18:02.243Z,100176.69
2022-08-30T18:20:33.158Z,100178.72
2022-08-30T18:23:02.059Z,100179.25
2022-08-30T18:25:30.143Z,100182.00
2022-08-30T18:27:59.330Z,100183.50
2022-08-30T18:30:33.974Z,100183.94
2022-08-30T18:33:06.952Z,100187.00
2022-08-30T18:35:35.010Z,100183.34
2022-08-30T18:38:04.823Z,100194.81
2022-08-30T18:40:32.981Z,100197.16
2022-08-30T18:43:07.872Z,100201.53
2022-08-30T18:45:38.506Z,100201.03
2022-08-30T18:48:06.149Z,100202.53
2022-08-30T18:50:34.241Z,100200.66
2022-08-30T18:53:03.649Z,100197.81
2022-08-30T18:55:32.963Z,100199.91
2022-08-30T18:58:01.798Z,100198.72
2022-08-30T19:00:33.717Z,100206.47
2022-08-30T19:03:03.155Z,100203.44
2022-08-30T19:05:35.566Z,100204.03
2022-08-30T19:08:04.224Z,100195.53
2022-08-30T19:10:34.129Z,100196.44
2022-08-30T19:13:04.928Z,100204.00
2022-08-30T19:15:37.984Z,100202.16
2022-08-30T19:18:16.679Z,100199.56
2022-08-30T19:20:47.445Z,100198.34
2022-08-30T19:23:18.073Z,100202.91
2022-08-30T19:25:47.004Z,100192.34
2022-08-30T19:28:21.825Z,100199.78
2022-08-30T19:30:54.934Z,100194.72
2022-08-30T19:33:23.756Z,100201.59
2022-08-30T19:35:55.045Z,100194.00
2022-08-30T19:38:26.257Z,100200.31
2022-08-30T19:40:59.344Z,100203.00
2022-08-30T19:43:30.623Z,100204.97
2022-08-30T19:46:00.986Z,100198.88
2022-08-30T19:48:32.795Z,100200.94
2022-08-30T19:51:08.533Z,100196.47
2022-08-30T19:53:37.306Z,100201.12
2022-08-30T19:56:06.385Z,100191.56
2022-08-30T19:58:35.319Z,100196.25
2022-08-30T20:01:11.691Z,100205.00
2022-08-30T20:03:49.713Z,100209.16
2022-08-30T20:06:20.212Z,100212.47
2022-08-30T20:08:48.623Z,100218.44
2022-08-30T20:11:20.609Z,100212.16
2022-08-30T20:13:49.791Z,100216.94
2022-08-30T20:16:19.957Z,100222.03
2022-08-30T20:18:52.889Z,100212.84
2022-08-30T20:21:24.245Z,100218.47
2022-08-30T20:23:55.487Z,100209.84
2022-08-30T20:26:31.630Z,100203.56
2022-08-30T20:29:06.233Z,100199.91
2022-08-30T20:31:37.165Z,100194.03
2022-08-30T20:34:07.916Z,100186.97
2022-08-30T20:36:36.213Z,100188.69
2022-08-30T20:39:09.601Z,100190.66
2022-08-30T20:41:38.347Z,100188.53
2022-08-30T20:44:11.861Z,100184.31
2022-08-30T20:46:46.537Z,100187.41
2022-08-30T20:49:14.668Z,100194.69
2022-08-30T20:51:44.004Z,100193.00
2022-08-30T20:54:12.532Z,100194.28
2022-08-30T20:56:41.007Z,100190.47
2022-08-30T20:59:10.237Z,100186.25
2022-08-30T21:01:39.216Z,100191.69
2022-08-30T21:04:09.572Z,100186.84
2022-08-30T21:06:39.453Z,100180.91
2022-08-30T21:09:08.999Z,100186.53
2022-08-30T21:11:39.269Z,100182.84
2022-08-30T21:14:13.331Z,100185.56
2022-08-30T21:16:41.929Z,100189.91
2022-08-30T21:19:10.201Z,100191.16
2022-08-30T21:21:38.574Z,100186.91
2022-08-30T21:24:10.276Z,100187.56
2022-08-30T21:26:40.846Z,100188.31
2022-08-30T21:29:09.978Z,100198.66
2022-08-30T21:31:38.315Z,100192.06
2022-08-30T21:34:07.387Z,100196.97
2022-08-30T21:36:46.246Z,100202.66
2022-08-30T21:39:24.902Z,100213.37
2022-08-30T21:41:57.070Z,100206.16
2022-08-30T21:44:26.965Z,100209.16
2022-08-30T21:46:55.182Z,100216.69
2022-08-30T21:49:23.922Z,100210.53
2022-08-30T21:51:53.936Z,100218.84
2022-08-30T21:54:23.320Z,100211.56
2022-08-30T21:56:53.252Z,100216.69
2022-08-30T21:59:22.390Z,100212.66
2022-08-30T22:01:50.522Z,100211.50
2022-08-30T22:04:25.690Z,100220.03
2022-08-30T22:06:54.485Z,100210.50
2022-08-30T22:09:24.874Z,100216.28
2022-08-30T22:11:58.295Z,100215.56
2022-08-30T22:14:33.780Z,100214.19
2022-08-30T22:17:08.644Z,100203.94
2022-08-30T22:19:41.822Z,100212.91
2022-08-30T22:22:14.512Z,100212.38
2022-08-30T22:24:50.165Z,100206.63
2022-08-30T22:27:22.523Z,100208.47
2022-08-30T22:29:53.071Z,100208.06
2022-08-30T22:32:24.089Z,100207.59
2022-08-30T22:34:59.207Z,100197.50
2022-08-30T22:37:30.543Z,100190.34
2022-08-30T22:40:06.671Z,100188.75
2022-08-30T22:42:37.745Z,100193.84
2022-08-30T22:45:10.382Z,100192.66
2022-08-30T22:47:40.371Z,100189.28
2022-08-30T22:50:10.742Z,100185.41
2022-08-30T22:52:41.880Z,100179.47
2022-08-30T22:55:12.475Z,100182.47
2022-08-30T22:57:45.871Z,100180.63
2022-08-30T23:00:20.376Z,100179.72
2022-08-30T23:02:54.072Z,100178.69
2022-08-30T23:05:25.751Z,100173.94
2022-08-30T23:07:56.896Z,100173.09
2022-08-30T23:10:30.222Z,100174.78
2022-08-30T23:13:02.817Z,100175.75
2022-08-30T23:15:32.595Z,100182.75
2022-08-30T23:18:06.025Z,100179.19
2022-08-30T23:20:38.849Z,100195.88
2022-08-30T23:23:08.067Z,100178.59
2022-08-30T23:26:05.645Z,100187.66
2022-08-30T23:29:00.219Z,100183.56
2022-08-30T23:31:55.742Z,100184.38
2022-08-30T23:34:46.365Z,100185.81
2022-08-30T23:37:36.955Z,100176.28
2022-08-30T23:40:26.443Z,100178.81
2022-08-30T23:43:21.798Z,100177.75
2022-08-30T23:46:10.299Z,100174.25
2022-08-30T23:48:59.405Z,100173.66
2022-08-30T23:51:48.091Z,100178.31
2022-08-30T23:54:38.813Z,100168.91
2022-08-30T23:57:26.767Z,100170.22
